Salete, Brazil
Current Conditions -  °F | °C
As of 4:00 PM on Thursday 30 Oct 2014 (Local Time) from SBNF Reporting Station
Clear Clear  
Wind Chill: 79°   Ceiling: Unl
Heat Index: 81°   Visibility: 6mi
Dew Point: 68°   Wind: 9mph
Humidity: 69%   Direction: 80°E
Pressure: 29.71"   Gusts: NA
Location:  26.98°S, 50°W
Report Text: SBNF 301800Z 08008KT CAVOK 26/20 Q1006
Loading
Personal Weather Stations






























Interactive Weather Map
Tropical Storm Tracking
New forecast layout! Learn more

10-Day Weather Forecast

Advertisements
Track Severe Weather on mobile